Astor — C6JR3 — position and weather

sailwx.info

Track history (hours):
 
Tides and Currents Weather Stations Pressure Air Temp Water Temp Dewpoint Dewpoint Depression Visibility Wind Speed Wind Dir Waves Ship Positions

Astor

Operator: Passat Ship Management Ltd

Last reported at 2018-May-24 13:30 UTC. Time now 2018-May-24 13:56 UTC.
Position N 55°39' E 015°12'.

Length 176 m; draft 6.2 m.

Type: Ship. MMSI: 308214000.

Date/timePositionNaut miles runAvg speedWind from/ knotsBaromVisibWave heightAir tempDewpointWater temp
2018-May-24 13:30N 55°39' E 015°12'6514.5
2018-May-24 09:00N 56°15' E 016°50'714.6
2018-May-24 08:31N 56°21' E 016°54'714.6
2018-May-24 08:00N 56°28' E 016°59'714.6
2018-May-24 07:30N 56°35' E 017°03'714.6
2018-May-24 07:01N 56°42' E 017°07'714.7
2018-May-24 06:31N 56°49' E 017°12'714.7
2018-May-24 06:01N 56°56' E 017°18'714.7
2018-May-24 05:31N 57°02' E 017°23'714.6
2018-May-24 05:00N 57°09' E 017°28'714.4
2018-May-24 04:31N 57°16' E 017°33'714.4
2018-May-24 04:01N 57°23' E 017°38'714.4
2018-May-24 03:31N 57°29' E 017°43'714.2
2018-May-24 03:01N 57°36' E 017°48'714.3
2018-May-24 02:30N 57°42' E 017°53'714.9
2018-May-24 02:01N 57°49' E 017°58'714.8
2018-May-24 01:31N 57°56' E 018°04'714.4
2018-May-24 01:00N 58°03' E 018°09'714.5
2018-May-24 00:30N 58°10' E 018°14'714.4
2018-May-24 00:01N 58°16' E 018°19'714.5
2018-May-23 23:31N 58°23' E 018°24'714.4
2018-May-23 23:01N 58°30' E 018°29'714.2
2018-May-23 22:30N 58°36' E 018°34'714.4
2018-May-23 22:00N 58°43' E 018°39'714.4
2018-May-23 21:30N 58°50' E 018°45'815.1
2018-May-23 21:00N 58°57' E 018°50'714.9
2018-May-23 20:30N 59°03' E 018°56'714.3
2018-May-23 20:00N 59°10' E 019°00'611.6
2018-May-23 19:30N 59°16' E 018°59'5 9.4
2018-May-23 18:57N 59°19' E 018°50'612.0
2018-May-23 18:29N 59°23' E 018°42'611.6
2018-May-23 18:00N 59°24' E 018°32'4 8.1
2018-May-23 17:30N 59°25' E 018°24'4 7.2
2018-May-23 17:00N 59°22' E 018°25'510.4
2018-May-23 16:30N 59°21' E 018°14'5 9.4
2018-May-23 16:00N 59°19' E 018°06'0 0.6
2018-May-23 15:29N 59°19' E 018°05'0 0.0
2018-May-23 14:59N 59°19' E 018°05'0 0.0
2018-May-23 14:28N 59°19' E 018°05'0 0.0
2018-May-23 13:58N 59°19' E 018°05'0 0.0
2018-May-23 13:28N 59°19' E 018°05'0 0.0
2018-May-23 12:58N 59°19' E 018°05'0 0.0
2018-May-23 12:30N 59°19' E 018°05'0 0.0
2018-May-23 12:00N 59°19' E 018°05'0 0.0
2018-May-23 11:30N 59°19' E 018°05'0 0.0
2018-May-23 11:00N 59°19' E 018°05'0 0.0
2018-May-23 10:30N 59°19' E 018°05'0 0.0
2018-May-23 09:59N 59°19' E 018°05'0 0.0
2018-May-23 09:29N 59°19' E 018°05'0 0.0
2018-May-23 08:59N 59°19' E 018°05'0 0.0
2018-May-23 08:29N 59°19' E 018°05'0 0.0
2018-May-23 07:59N 59°19' E 018°05'0 0.0
2018-May-23 07:28N 59°19' E 018°05'0 0.0
2018-May-23 06:58N 59°19' E 018°05'0 0.0
2018-May-23 06:28N 59°19' E 018°05'0 0.0
2018-May-23 05:58N 59°19' E 018°05'0 0.0
2018-May-23 05:30N 59°19' E 018°05'0 0.0
2018-May-23 05:00N 59°19' E 018°05'2 4.2
2018-May-23 04:30N 59°19' E 018°09'611.8
2018-May-23 04:00N 59°23' E 018°19'4 8.3
2018-May-23 03:30N 59°22' E 018°27'4 8.5
2018-May-23 03:00N 59°27' E 018°25'611.6
2018-May-23 02:30N 59°23' E 018°34'612.1
2018-May-23 02:00N 59°22' E 018°46'612.0
2018-May-23 01:30N 59°17' E 018°54'510.2
2018-May-23 01:00N 59°15' E 019°02'510.2
2018-May-23 00:30N 59°13' E 019°12'815.3
2018-May-23 00:00N 59°15' E 019°27'815.3
2018-May-22 23:30N 59°16' E 019°41'815.2
2018-May-22 23:00N 59°17' E 019°56'2515.3
2018-May-22 21:22N 59°21' E 020°45'615.7
2018-May-22 21:00N 59°22' E 020°56'815.7
2018-May-22 20:30N 59°23' E 021°11'815.7
2018-May-22 20:00N 59°24' E 021°26'815.6
2018-May-22 19:30N 59°25' E 021°41'815.5
2018-May-22 19:00N 59°27' E 021°57'815.7
2018-May-22 18:30N 59°28' E 022°12'815.4
2018-May-22 18:00N 59°30' E 022°26'815.3
2018-May-22 17:30N 59°32' E 022°40'815.7
2018-May-22 17:00N 59°34' E 022°56'815.8
2018-May-22 16:30N 59°37' E 023°10'815.7
2018-May-22 16:00N 59°39' E 023°25'815.6
2018-May-22 15:30N 59°41' E 023°40'815.8
2018-May-22 15:01N 59°43' E 023°55'815.8
2018-May-22 14:30N 59°45' E 024°10'815.5
2018-May-22 14:00N 59°48' E 024°25'815.4
2018-May-22 13:31N 59°51' E 024°39'815.3
2018-May-22 13:00N 59°54' E 024°52'612.5
2018-May-22 12:31N 60°00' E 024°57'611.6
2018-May-22 12:01N 60°06' E 024°59'4 7.7
2018-May-22 11:29N 60°10' E 024°58'0 0.0
2018-May-22 10:53N 60°10' E 024°58'0 0.0
2018-May-22 10:29N 60°10' E 024°58'0 0.0
2018-May-22 09:59N 60°10' E 024°58'0 0.0
2018-May-22 09:28N 60°10' E 024°58'0 0.0
2018-May-22 08:58N 60°10' E 024°58'0 0.0
2018-May-22 08:28N 60°10' E 024°58'0 0.0
2018-May-22 07:57N 60°10' E 024°58'0 0.1
2018-May-22 07:30N 60°10' E 024°58'0 0.0
2018-May-22 07:00N 60°10' E 024°58'0 0.0
2018-May-22 06:30N 60°10' E 024°58'0 0.1
2018-May-22 06:01N 60°10' E 024°58'2 4.5
2018-May-22 05:30N 60°08' E 024°59'510.7
2018-May-22 05:01N 60°03' E 024°57'713.2
2018-May-22 04:31N 59°59' E 025°09'815.6
2018-May-22 04:01N 59°58' E 025°25'816.4
2018-May-22 03:31N 59°58' E 025°41'1416.4
2018-May-22 02:39N 59°59' E 026°09'624.6
2018-May-22 02:23N 60°00' E 026°22'410.8
2018-May-22 02:00N 60°01' E 026°30'816.1
2018-May-22 01:29N 60°00' E 026°47'816.2
2018-May-22 01:00N 59°59' E 027°02'815.9
2018-May-22 00:30N 60°03' E 027°16'815.8
2018-May-22 00:00N 60°07' E 027°30'816.0
2018-May-21 23:30N 60°11' E 027°43'915.2
2018-May-21 22:55N 60°10' E 028°01'715.9
2018-May-21 22:30N 60°08' E 028°14'815.9
2018-May-21 22:00N 60°04' E 028°27'815.7
2018-May-21 21:30N 60°03' E 028°43'816.0
2018-May-21 21:00N 60°02' E 028°59'1119.0
2018-May-21 20:26N 60°02' E 029°20'5 8.3
2018-May-21 19:50N 60°01' E 029°30'411.5
2018-May-21 19:29N 60°00' E 029°38'511.0
2018-May-21 19:00N 59°58' E 029°47'510.6
2018-May-21 18:30N 59°56' E 029°57'510.2
2018-May-21 18:00N 59°54' E 030°07'3 6.1
2018-May-21 17:30N 59°54' E 030°13'2 4.9
2018-May-21 17:00N 59°55' E 030°16'0 1.0
2018-May-21 16:30N 59°56' E 030°16'0 0.0
2018-May-21 15:59N 59°56' E 030°16'0 0.0
2018-May-21 15:29N 59°56' E 030°16'0 0.0
2018-May-21 14:59N 59°56' E 030°16'0 0.0
2018-May-21 14:29N 59°56' E 030°16'0 0.0
2018-May-21 13:59N 59°56' E 030°16'0 0.0
2018-May-21 13:29N 59°56' E 030°16'0 0.0
2018-May-21 12:58N 59°56' E 030°16'0 0.0
2018-May-21 12:28N 59°56' E 030°16'0 0.0
2018-May-21 11:58N 59°56' E 030°16'0 0.0
2018-May-21 11:30N 59°56' E 030°16'0 0.0
2018-May-21 11:00N 59°56' E 030°16'0 0.0
2018-May-21 10:30N 59°56' E 030°16'0 0.0
2018-May-21 10:00N 59°56' E 030°16'0 0.0
2018-May-21 09:30N 59°56' E 030°16'0 0.0
2018-May-21 08:56N 59°56' E 030°16'0 0.0
2018-May-21 08:29N 59°56' E 030°16'0 0.0
2018-May-21 07:56N 59°56' E 030°16'0 0.0
2018-May-21 07:29N 59°56' E 030°16'0 0.0
2018-May-21 06:59N 59°56' E 030°16'0 0.0
2018-May-21 06:28N 59°56' E 030°16'0 0.0
2018-May-21 05:55N 59°56' E 030°16'0 0.0
2018-May-21 05:28N 59°56' E 030°16'0 0.0
2018-May-21 04:58N 59°56' E 030°16'0 0.0
2018-May-21 04:30N 59°56' E 030°16'0 0.0
2018-May-21 04:00N 59°56' E 030°16'0 0.0
2018-May-21 03:30N 59°56' E 030°16'0 0.0
2018-May-21 03:00N 59°56' E 030°16'0 0.0
2018-May-21 02:30N 59°56' E 030°16'0 0.0
2018-May-21 01:59N 59°56' E 030°16'0 0.0
2018-May-21 01:29N 59°56' E 030°16'0 0.0
2018-May-21 00:59N 59°56' E 030°16'0 0.0
2018-May-21 00:26N 59°56' E 030°16'0 0.0
2018-May-20 23:59N 59°56' E 030°16'0 0.0
2018-May-20 23:28N 59°56' E 030°16'0 0.0
2018-May-20 22:58N 59°56' E 030°16'0 0.0
2018-May-20 22:28N 59°56' E 030°16'0 0.0
2018-May-20 21:58N 59°56' E 030°16'0 0.0
2018-May-20 21:31N 59°56' E 030°16'0 0.0
2018-May-20 21:00N 59°56' E 030°16'0 0.0
2018-May-20 20:27N 59°56' E 030°16'0 0.0
2018-May-20 20:00N 59°56' E 030°16'0 0.0
2018-May-20 19:27N 59°56' E 030°16'0 0.0
2018-May-20 18:59N 59°56' E 030°16'0 0.0
2018-May-20 18:29N 59°56' E 030°16'0 0.0
2018-May-20 17:59N 59°56' E 030°16'0 0.0
2018-May-20 17:29N 59°56' E 030°16'0 0.0
2018-May-20 16:59N 59°56' E 030°16'0 0.0
2018-May-20 16:28N 59°56' E 030°16'0 0.0
2018-May-20 15:56N 59°56' E 030°16'0 0.0
2018-May-20 15:28N 59°56' E 030°16'0 0.0
2018-May-20 14:58N 59°56' E 030°16'0 0.0
2018-May-20 14:30N 59°56' E 030°16'0 0.0
2018-May-20 14:00N 59°56' E 030°16'0 0.0
2018-May-20 13:30N 59°56' E 030°16'0 0.0
2018-May-20 13:00N 59°56' E 030°16'0 0.0
2018-May-20 12:30N 59°56' E 030°16'0 0.0
2018-May-20 11:59N 59°56' E 030°16'0 0.0
2018-May-20 11:29N 59°56' E 030°16'0 0.0
2018-May-20 10:59N 59°56' E 030°16'0 0.0
2018-May-20 10:29N 59°56' E 030°16'0 0.0
2018-May-20 09:58N 59°56' E 030°16'0 0.0
2018-May-20 09:28N 59°56' E 030°16'0 0.0
2018-May-20 08:58N 59°56' E 030°16'0 0.0
2018-May-20 08:28N 59°56' E 030°16'0 0.0
2018-May-20 07:58N 59°56' E 030°16'0 0.0
2018-May-20 07:30N 59°56' E 030°16'0 0.0
2018-May-20 06:57N 59°56' E 030°16'0 0.0
2018-May-20 06:30N 59°56' E 030°16'0 0.0
2018-May-20 06:00N 59°56' E 030°16'0 0.0
2018-May-20 05:30N 59°56' E 030°16'0 0.0
2018-May-20 04:59N 59°56' E 030°16'0 0.0
2018-May-20 04:29N 59°56' E 030°16'0 0.1
2018-May-20 03:59N 59°56' E 030°16'1 2.0
2018-May-20 03:30N 59°55' E 030°15'3 5.0
2018-May-20 03:00N 59°53' E 030°12'3 5.8
2018-May-20 02:30N 59°54' E 030°06'510.8
2018-May-20 02:00N 59°56' E 029°56'5 9.8
2018-May-20 01:30N 59°58' E 029°47'610.8
2018-May-20 00:55N 60°01' E 029°36'511.5
2018-May-20 00:30N 60°02' E 029°26'612.0
2018-May-19 23:59N 60°02' E 029°14'713.6
2018-May-19 23:30N 60°02' E 029°01'714.1
2018-May-19 23:00N 60°02' E 028°47'813.8
2018-May-19 22:28N 60°02' E 028°32'613.6
2018-May-19 22:00N 60°05' E 028°21'713.3
2018-May-19 21:30N 60°08' E 028°08'713.6
2018-May-19 21:00N 60°10' E 027°55'612.6
2018-May-19 20:30N 60°10' E 027°43'713.6
2018-May-19 20:00N 60°06' E 027°31'713.8
2018-May-19 19:30N 60°03' E 027°19'713.8
2018-May-19 19:00N 59°59' E 027°07'713.1
2018-May-19 18:30N 59°58' E 026°54'713.6
2018-May-19 18:00N 59°60' E 026°41'713.8
2018-May-19 17:30N 59°58' E 026°27'1613.8
2018-May-19 16:21N 59°53' E 025°57'514.1
2018-May-19 16:00N 59°52' E 025°48'714.3
2018-May-19 15:30N 59°50' E 025°34'714.3
2018-May-19 15:00N 59°48' E 025°20'714.2
2018-May-19 14:30N 59°46' E 025°07'714.0
2018-May-19 14:01N 59°44' E 024°53'713.9
2018-May-19 13:31N 59°39' E 024°44'611.5
2018-May-19 13:00N 59°33' E 024°43'612.0
2018-May-19 12:30N 59°28' E 024°46'1 1.2
2018-May-19 12:00N 59°27' E 024°46'0 0.0
2018-May-19 11:30N 59°27' E 024°46'0 0.0
2018-May-19 11:00N 59°27' E 024°46'0 0.0
2018-May-19 10:29N 59°27' E 024°46'0 0.0
2018-May-19 09:59N 59°27' E 024°46'0 0.0
2018-May-19 09:29N 59°27' E 024°46'0 0.0
2018-May-19 08:59N 59°27' E 024°46'0 0.0
2018-May-19 08:30N 59°27' E 024°46'0 0.0
2018-May-19 07:58N 59°27' E 024°46'0 0.0
2018-May-19 07:28N 59°27' E 024°46'0 0.0
2018-May-19 06:58N 59°27' E 024°46'0 0.0
2018-May-19 06:28N 59°27' E 024°46'0 0.0
2018-May-19 06:00N 59°27' E 024°46'2 3.4
2018-May-19 05:30N 59°29' E 024°46'611.2
2018-May-19 05:01N 59°30' E 024°35'713.3
2018-May-19 04:30N 59°30' E 024°22'815.1
2018-May-19 03:58N 59°29' E 024°06'1116.1
2018-May-19 03:16N 59°28' E 023°44'415.9
2018-May-19 03:00N 59°28' E 023°36'816.0
2018-May-19 02:28N 59°27' E 023°19'816.2
2018-May-19 01:57N 59°27' E 023°02'2915.8
2018-May-19 00:05N 59°14' E 022°10'116.1
2018-May-19 00:01N 59°13' E 022°08'815.9
2018-May-18 23:31N 59°08' E 021°56'815.6
2018-May-18 23:01N 59°03' E 021°45'815.4
2018-May-18 22:30N 58°56' E 021°38'815.4
2018-May-18 22:01N 58°49' E 021°32'192 4.3
2018-May-17 01:23N 55°40' E 020°33'8 9.6
2018-May-17 00:33N 55°36' E 020°20'1 9.6
2018-May-17 00:28N 55°36' E 020°19'4 9.4
2018-May-17 00:00N 55°34' E 020°12'16 9.4
2018-May-16 22:15N 55°23' E 019°51'2 9.2
2018-May-16 21:59N 55°21' E 019°48'15 9.3
2018-May-16 20:24N 55°07' E 019°40'4 9.1
2018-May-16 20:00N 55°04' E 019°38'4 9.1
2018-May-16 19:30N 54°59' E 019°37'5 9.4
2018-May-16 19:00N 54°55' E 019°36'5 9.4
2018-May-16 18:30N 54°50' E 019°35'5 9.5
2018-May-16 18:00N 54°45' E 019°37'4 8.9
2018-May-16 17:30N 54°42' E 019°43'5 9.4
2018-May-16 17:00N 54°40' E 019°50'4 7.0
2018-May-16 16:30N 54°38' E 019°55'0 0.0
2018-May-16 15:20N 54°38' E 019°55'0 0.0
2018-May-16 14:55N 54°38' E 019°55'0 0.0
2018-May-16 14:28N 54°38' E 019°55'0 0.0
2018-May-16 13:58N 54°38' E 019°55'0 0.0
2018-May-16 13:13N 54°38' E 019°55'0 0.0
2018-May-16 12:24N 54°38' E 019°55'0 0.0
2018-May-16 12:00N 54°38' E 019°55'0 0.0
2018-May-16 11:24N 54°38' E 019°55'0 0.0
2018-May-16 10:51N 54°38' E 019°55'0 0.0
2018-May-16 10:29N 54°38' E 019°55'0 0.0
2018-May-16 09:59N 54°38' E 019°55'0 0.0
2018-May-16 09:29N 54°38' E 019°55'0 0.0
2018-May-16 08:59N 54°38' E 019°55'0 0.0
2018-May-16 08:29N 54°38' E 019°55'0 0.0
2018-May-16 07:58N 54°38' E 019°55'0 0.0
2018-May-16 07:28N 54°38' E 019°55'0 0.0
2018-May-16 06:58N 54°38' E 019°55'0 0.0
2018-May-16 06:28N 54°38' E 019°55'0 0.2
2018-May-16 06:00N 54°38' E 019°55'3 5.1
2018-May-16 05:30N 54°39' E 019°51'5 9.2
2018-May-16 05:00N 54°42' E 019°44'4 8.9
2018-May-16 04:30N 54°44' E 019°38'4 8.5
2018-May-16 04:00N 54°45' E 019°31'4 8.8
2018-May-16 03:30N 54°45' E 019°23'5 9.0
2018-May-16 03:00N 54°46' E 019°15'4 7.6
2018-May-16 02:30N 54°49' E 019°12'4 8.4
2018-May-16 02:00N 54°53' E 019°09'3 5.3
2018-May-16 01:31N 54°53' E 019°13'3 5.8
2018-May-16 00:58N 54°50' E 019°13'4 8.9
2018-May-16 00:30N 54°47' E 019°08'4 8.9
2018-May-16 00:00N 54°45' E 019°01'4 8.4
2018-May-15 23:30N 54°41' E 018°58'4 8.8
2018-May-15 23:00N 54°37' E 018°55'4 8.7
2018-May-15 22:30N 54°33' E 018°51'4 8.8
2018-May-15 22:00N 54°30' E 018°46'510.1
2018-May-15 21:30N 54°26' E 018°40'2 4.0
2018-May-15 20:59N 54°24' E 018°40'0 0.0
2018-May-15 20:25N 54°24' E 018°40'0 0.0
2018-May-15 19:58N 54°24' E 018°40'0 0.0
2018-May-15 19:25N 54°24' E 018°40'0 0.0
2018-May-15 18:58N 54°24' E 018°40'0 0.0
2018-May-15 18:28N 54°24' E 018°40'0 0.0
2018-May-15 18:00N 54°24' E 018°40'0 0.0
2018-May-15 17:27N 54°24' E 018°40'0 0.0
2018-May-15 17:00N 54°24' E 018°40'0 0.0
2018-May-15 16:27N 54°24' E 018°40'0 0.0
2018-May-15 16:00N 54°24' E 018°40'0 0.0
2018-May-15 15:26N 54°24' E 018°40'0 0.0
2018-May-15 14:56N 54°24' E 018°40'0 0.0
2018-May-15 14:29N 54°24' E 018°40'0 0.0
2018-May-15 13:59N 54°24' E 018°40'0 0.0
2018-May-15 13:28N 54°24' E 018°40'0 0.0
2018-May-15 12:58N 54°24' E 018°40'0 0.0
2018-May-15 12:28N 54°24' E 018°40'0 0.0
2018-May-15 11:55N 54°24' E 018°40'0 0.0
2018-May-15 11:28N 54°24' E 018°40'0 0.0
2018-May-15 11:00N 54°24' E 018°40'0 0.0
2018-May-15 10:30N 54°24' E 018°40'0 0.0
2018-May-15 09:57N 54°24' E 018°40'0 0.0
2018-May-15 09:30N 54°24' E 018°40'0 0.0
2018-May-15 08:53N 54°24' E 018°40'0 0.0
2018-May-15 08:29N 54°24' E 018°40'0 0.0
2018-May-15 07:59N 54°24' E 018°40'0 0.0
2018-May-15 07:29N 54°24' E 018°40'0 0.0
2018-May-15 06:59N 54°24' E 018°40'0 0.0
2018-May-15 06:28N 54°24' E 018°40'0 0.0
2018-May-15 05:58N 54°24' E 018°40'0 0.0
2018-May-15 05:28N 54°24' E 018°40'0 0.0
2018-May-15 05:00N 54°24' E 018°40'2 3.3
2018-May-15 04:30N 54°26' E 018°39'4 8.4
2018-May-15 04:00N 54°29' E 018°43'612.2
2018-May-15 03:30N 54°34' E 018°50'714.2
2018-May-15 03:00N 54°40' E 018°57'814.8
2018-May-15 02:28N 54°47' E 018°59'612.3
2018-May-15 02:00N 54°49' E 018°50'815.4
2018-May-15 01:30N 54°54' E 018°39'714.5
2018-May-15 01:00N 54°56' E 018°27'815.1
2018-May-15 00:28N 54°55' E 018°14'1215.2
2018-May-14 23:42N 54°54' E 017°53'3515.4
2018-May-14 21:28N 54°49' E 016°54'715.5
2018-May-14 20:59N 54°47' E 016°42'715.5
2018-May-14 20:30N 54°46' E 016°29'815.4
2018-May-14 20:00N 54°45' E 016°16'1515.0
2018-May-14 18:59N 54°43' E 015°49'1215.7
2018-May-14 18:13N 54°41' E 015°29'415.7
2018-May-14 17:56N 54°40' E 015°21'715.7
2018-May-14 17:30N 54°39' E 015°10'815.6
2018-May-14 17:00N 54°38' E 014°56'815.6
2018-May-14 16:31N 54°37' E 014°43'815.4
2018-May-14 16:00N 54°36' E 014°29'815.0
2018-May-14 15:28N 54°37' E 014°16'915.2
2018-May-14 14:52N 54°40' E 014°01'  
Track history (hours):
 
Tides and Currents Weather Stations Pressure Air Temp Water Temp Dewpoint Dewpoint Depression Visibility Wind Speed Wind Dir Waves Ship Positions

Astor

Operator: Passat Ship Management Ltd

Last reported at 2018-May-24 13:30 UTC. Time now 2018-May-24 13:56 UTC.
Position N 55°39' E 015°12'.

Length 176 m; draft 6.2 m.

Type: Ship. MMSI: 308214000.

Date/timePositionNaut miles runAvg speedWind from/ knotsBaromVisibWave heightAir tempDewpointWater temp
2018-May-24 13:30N 55°39' E 015°12'6514.5
2018-May-24 09:00N 56°15' E 016°50'714.6
2018-May-24 08:31N 56°21' E 016°54'714.6
2018-May-24 08:00N 56°28' E 016°59'714.6
2018-May-24 07:30N 56°35' E 017°03'714.6
2018-May-24 07:01N 56°42' E 017°07'714.7
2018-May-24 06:31N 56°49' E 017°12'714.7
2018-May-24 06:01N 56°56' E 017°18'714.7
2018-May-24 05:31N 57°02' E 017°23'714.6
2018-May-24 05:00N 57°09' E 017°28'714.4
2018-May-24 04:31N 57°16' E 017°33'714.4
2018-May-24 04:01N 57°23' E 017°38'714.4
2018-May-24 03:31N 57°29' E 017°43'714.2
2018-May-24 03:01N 57°36' E 017°48'714.3
2018-May-24 02:30N 57°42' E 017°53'714.9
2018-May-24 02:01N 57°49' E 017°58'714.8
2018-May-24 01:31N 57°56' E 018°04'714.4
2018-May-24 01:00N 58°03' E 018°09'714.5
2018-May-24 00:30N 58°10' E 018°14'714.4
2018-May-24 00:01N 58°16' E 018°19'714.5
2018-May-23 23:31N 58°23' E 018°24'714.4
2018-May-23 23:01N 58°30' E 018°29'714.2
2018-May-23 22:30N 58°36' E 018°34'714.4
2018-May-23 22:00N 58°43' E 018°39'714.4
2018-May-23 21:30N 58°50' E 018°45'815.1
2018-May-23 21:00N 58°57' E 018°50'714.9
2018-May-23 20:30N 59°03' E 018°56'714.3
2018-May-23 20:00N 59°10' E 019°00'611.6
2018-May-23 19:30N 59°16' E 018°59'5 9.4
2018-May-23 18:57N 59°19' E 018°50'612.0
2018-May-23 18:29N 59°23' E 018°42'611.6
2018-May-23 18:00N 59°24' E 018°32'4 8.1
2018-May-23 17:30N 59°25' E 018°24'4 7.2
2018-May-23 17:00N 59°22' E 018°25'510.4
2018-May-23 16:30N 59°21' E 018°14'5 9.4
2018-May-23 16:00N 59°19' E 018°06'0 0.6
2018-May-23 15:29N 59°19' E 018°05'0 0.0
2018-May-23 14:59N 59°19' E 018°05'0 0.0
2018-May-23 14:28N 59°19' E 018°05'0 0.0
2018-May-23 13:58N 59°19' E 018°05'0 0.0
2018-May-23 13:28N 59°19' E 018°05'0 0.0
2018-May-23 12:58N 59°19' E 018°05'0 0.0
2018-May-23 12:30N 59°19' E 018°05'0 0.0
2018-May-23 12:00N 59°19' E 018°05'0 0.0
2018-May-23 11:30N 59°19' E 018°05'0 0.0
2018-May-23 11:00N 59°19' E 018°05'0 0.0
2018-May-23 10:30N 59°19' E 018°05'0 0.0
2018-May-23 09:59N 59°19' E 018°05'0 0.0
2018-May-23 09:29N 59°19' E 018°05'0 0.0
2018-May-23 08:59N 59°19' E 018°05'0 0.0
2018-May-23 08:29N 59°19' E 018°05'0 0.0
2018-May-23 07:59N 59°19' E 018°05'0 0.0
2018-May-23 07:28N 59°19' E 018°05'0 0.0
2018-May-23 06:58N 59°19' E 018°05'0 0.0
2018-May-23 06:28N 59°19' E 018°05'0 0.0
2018-May-23 05:58N 59°19' E 018°05'0 0.0
2018-May-23 05:30N 59°19' E 018°05'0 0.0
2018-May-23 05:00N 59°19' E 018°05'2 4.2
2018-May-23 04:30N 59°19' E 018°09'611.8
2018-May-23 04:00N 59°23' E 018°19'4 8.3
2018-May-23 03:30N 59°22' E 018°27'4 8.5
2018-May-23 03:00N 59°27' E 018°25'611.6
2018-May-23 02:30N 59°23' E 018°34'612.1
2018-May-23 02:00N 59°22' E 018°46'612.0
2018-May-23 01:30N 59°17' E 018°54'510.2
2018-May-23 01:00N 59°15' E 019°02'510.2
2018-May-23 00:30N 59°13' E 019°12'815.3
2018-May-23 00:00N 59°15' E 019°27'815.3
2018-May-22 23:30N 59°16' E 019°41'815.2
2018-May-22 23:00N 59°17' E 019°56'2515.3
2018-May-22 21:22N 59°21' E 020°45'615.7
2018-May-22 21:00N 59°22' E 020°56'815.7
2018-May-22 20:30N 59°23' E 021°11'815.7
2018-May-22 20:00N 59°24' E 021°26'815.6
2018-May-22 19:30N 59°25' E 021°41'815.5
2018-May-22 19:00N 59°27' E 021°57'815.7
2018-May-22 18:30N 59°28' E 022°12'815.4
2018-May-22 18:00N 59°30' E 022°26'815.3
2018-May-22 17:30N 59°32' E 022°40'815.7
2018-May-22 17:00N 59°34' E 022°56'815.8
2018-May-22 16:30N 59°37' E 023°10'815.7
2018-May-22 16:00N 59°39' E 023°25'815.6
2018-May-22 15:30N 59°41' E 023°40'815.8
2018-May-22 15:01N 59°43' E 023°55'815.8
2018-May-22 14:30N 59°45' E 024°10'815.5
2018-May-22 14:00N 59°48' E 024°25'815.4
2018-May-22 13:31N 59°51' E 024°39'815.3
2018-May-22 13:00N 59°54' E 024°52'612.5
2018-May-22 12:31N 60°00' E 024°57'611.6
2018-May-22 12:01N 60°06' E 024°59'4 7.7
2018-May-22 11:29N 60°10' E 024°58'0 0.0
2018-May-22 10:53N 60°10' E 024°58'0 0.0
2018-May-22 10:29N 60°10' E 024°58'0 0.0
2018-May-22 09:59N 60°10' E 024°58'0 0.0
2018-May-22 09:28N 60°10' E 024°58'0 0.0
2018-May-22 08:58N 60°10' E 024°58'0 0.0
2018-May-22 08:28N 60°10' E 024°58'0 0.0
2018-May-22 07:57N 60°10' E 024°58'0 0.1
2018-May-22 07:30N 60°10' E 024°58'0 0.0
2018-May-22 07:00N 60°10' E 024°58'0 0.0
2018-May-22 06:30N 60°10' E 024°58'0 0.1
2018-May-22 06:01N 60°10' E 024°58'2 4.5
2018-May-22 05:30N 60°08' E 024°59'510.7
2018-May-22 05:01N 60°03' E 024°57'713.2
2018-May-22 04:31N 59°59' E 025°09'815.6
2018-May-22 04:01N 59°58' E 025°25'816.4
2018-May-22 03:31N 59°58' E 025°41'1416.4
2018-May-22 02:39N 59°59' E 026°09'624.6
2018-May-22 02:23N 60°00' E 026°22'410.8
2018-May-22 02:00N 60°01' E 026°30'816.1
2018-May-22 01:29N 60°00' E 026°47'816.2
2018-May-22 01:00N 59°59' E 027°02'815.9
2018-May-22 00:30N 60°03' E 027°16'815.8
2018-May-22 00:00N 60°07' E 027°30'816.0
2018-May-21 23:30N 60°11' E 027°43'915.2
2018-May-21 22:55N 60°10' E 028°01'715.9
2018-May-21 22:30N 60°08' E 028°14'815.9
2018-May-21 22:00N 60°04' E 028°27'815.7
2018-May-21 21:30N 60°03' E 028°43'816.0
2018-May-21 21:00N 60°02' E 028°59'1119.0
2018-May-21 20:26N 60°02' E 029°20'5 8.3
2018-May-21 19:50N 60°01' E 029°30'411.5
2018-May-21 19:29N 60°00' E 029°38'511.0
2018-May-21 19:00N 59°58' E 029°47'510.6
2018-May-21 18:30N 59°56' E 029°57'510.2
2018-May-21 18:00N 59°54' E 030°07'3 6.1
2018-May-21 17:30N 59°54' E 030°13'2 4.9
2018-May-21 17:00N 59°55' E 030°16'0 1.0
2018-May-21 16:30N 59°56' E 030°16'0 0.0
2018-May-21 15:59N 59°56' E 030°16'0 0.0
2018-May-21 15:29N 59°56' E 030°16'0 0.0
2018-May-21 14:59N 59°56' E 030°16'0 0.0
2018-May-21 14:29N 59°56' E 030°16'0 0.0
2018-May-21 13:59N 59°56' E 030°16'0 0.0
2018-May-21 13:29N 59°56' E 030°16'0 0.0
2018-May-21 12:58N 59°56' E 030°16'0 0.0
2018-May-21 12:28N 59°56' E 030°16'0 0.0
2018-May-21 11:58N 59°56' E 030°16'0 0.0
2018-May-21 11:30N 59°56' E 030°16'0 0.0
2018-May-21 11:00N 59°56' E 030°16'0 0.0
2018-May-21 10:30N 59°56' E 030°16'0 0.0
2018-May-21 10:00N 59°56' E 030°16'0 0.0
2018-May-21 09:30N 59°56' E 030°16'0 0.0
2018-May-21 08:56N 59°56' E 030°16'0 0.0
2018-May-21 08:29N 59°56' E 030°16'0 0.0
2018-May-21 07:56N 59°56' E 030°16'0 0.0
2018-May-21 07:29N 59°56' E 030°16'0 0.0
2018-May-21 06:59N 59°56' E 030°16'0 0.0
2018-May-21 06:28N 59°56' E 030°16'0 0.0
2018-May-21 05:55N 59°56' E 030°16'0 0.0
2018-May-21 05:28N 59°56' E 030°16'0 0.0
2018-May-21 04:58N 59°56' E 030°16'0 0.0
2018-May-21 04:30N 59°56' E 030°16'0 0.0
2018-May-21 04:00N 59°56' E 030°16'0 0.0
2018-May-21 03:30N 59°56' E 030°16'0 0.0
2018-May-21 03:00N 59°56' E 030°16'0 0.0
2018-May-21 02:30N 59°56' E 030°16'0 0.0
2018-May-21 01:59N 59°56' E 030°16'0 0.0
2018-May-21 01:29N 59°56' E 030°16'0 0.0
2018-May-21 00:59N 59°56' E 030°16'0 0.0
2018-May-21 00:26N 59°56' E 030°16'0 0.0
2018-May-20 23:59N 59°56' E 030°16'0 0.0
2018-May-20 23:28N 59°56' E 030°16'0 0.0
2018-May-20 22:58N 59°56' E 030°16'0 0.0
2018-May-20 22:28N 59°56' E 030°16'0 0.0
2018-May-20 21:58N 59°56' E 030°16'0 0.0
2018-May-20 21:31N 59°56' E 030°16'0 0.0
2018-May-20 21:00N 59°56' E 030°16'0 0.0
2018-May-20 20:27N 59°56' E 030°16'0 0.0
2018-May-20 20:00N 59°56' E 030°16'0 0.0
2018-May-20 19:27N 59°56' E 030°16'0 0.0
2018-May-20 18:59N 59°56' E 030°16'0 0.0
2018-May-20 18:29N 59°56' E 030°16'0 0.0
2018-May-20 17:59N 59°56' E 030°16'0 0.0
2018-May-20 17:29N 59°56' E 030°16'0 0.0
2018-May-20 16:59N 59°56' E 030°16'0 0.0
2018-May-20 16:28N 59°56' E 030°16'0 0.0
2018-May-20 15:56N 59°56' E 030°16'0 0.0
2018-May-20 15:28N 59°56' E 030°16'0 0.0
2018-May-20 14:58N 59°56' E 030°16'0 0.0
2018-May-20 14:30N 59°56' E 030°16'0 0.0
2018-May-20 14:00N 59°56' E 030°16'0 0.0
2018-May-20 13:30N 59°56' E 030°16'0 0.0
2018-May-20 13:00N 59°56' E 030°16'0 0.0
2018-May-20 12:30N 59°56' E 030°16'0 0.0
2018-May-20 11:59N 59°56' E 030°16'0 0.0
2018-May-20 11:29N 59°56' E 030°16'0 0.0
2018-May-20 10:59N 59°56' E 030°16'0 0.0
2018-May-20 10:29N 59°56' E 030°16'0 0.0
2018-May-20 09:58N 59°56' E 030°16'0 0.0
2018-May-20 09:28N 59°56' E 030°16'0 0.0
2018-May-20 08:58N 59°56' E 030°16'0 0.0
2018-May-20 08:28N 59°56' E 030°16'0 0.0
2018-May-20 07:58N 59°56' E 030°16'0 0.0
2018-May-20 07:30N 59°56' E 030°16'0 0.0
2018-May-20 06:57N 59°56' E 030°16'0 0.0
2018-May-20 06:30N 59°56' E 030°16'0 0.0
2018-May-20 06:00N 59°56' E 030°16'0 0.0
2018-May-20 05:30N 59°56' E 030°16'0 0.0
2018-May-20 04:59N 59°56' E 030°16'0 0.0
2018-May-20 04:29N 59°56' E 030°16'0 0.1
2018-May-20 03:59N 59°56' E 030°16'1 2.0
2018-May-20 03:30N 59°55' E 030°15'3 5.0
2018-May-20 03:00N 59°53' E 030°12'3 5.8
2018-May-20 02:30N 59°54' E 030°06'510.8
2018-May-20 02:00N 59°56' E 029°56'5 9.8
2018-May-20 01:30N 59°58' E 029°47'610.8
2018-May-20 00:55N 60°01' E 029°36'511.5
2018-May-20 00:30N 60°02' E 029°26'612.0
2018-May-19 23:59N 60°02' E 029°14'713.6
2018-May-19 23:30N 60°02' E 029°01'714.1
2018-May-19 23:00N 60°02' E 028°47'813.8
2018-May-19 22:28N 60°02' E 028°32'613.6
2018-May-19 22:00N 60°05' E 028°21'713.3
2018-May-19 21:30N 60°08' E 028°08'713.6
2018-May-19 21:00N 60°10' E 027°55'612.6
2018-May-19 20:30N 60°10' E 027°43'713.6
2018-May-19 20:00N 60°06' E 027°31'713.8
2018-May-19 19:30N 60°03' E 027°19'713.8
2018-May-19 19:00N 59°59' E 027°07'713.1
2018-May-19 18:30N 59°58' E 026°54'713.6
2018-May-19 18:00N 59°60' E 026°41'713.8
2018-May-19 17:30N 59°58' E 026°27'1613.8
2018-May-19 16:21N 59°53' E 025°57'514.1
2018-May-19 16:00N 59°52' E 025°48'714.3
2018-May-19 15:30N 59°50' E 025°34'714.3
2018-May-19 15:00N 59°48' E 025°20'714.2
2018-May-19 14:30N 59°46' E 025°07'714.0
2018-May-19 14:01N 59°44' E 024°53'713.9
2018-May-19 13:31N 59°39' E 024°44'611.5
2018-May-19 13:00N 59°33' E 024°43'612.0
2018-May-19 12:30N 59°28' E 024°46'1 1.2
2018-May-19 12:00N 59°27' E 024°46'0 0.0
2018-May-19 11:30N 59°27' E 024°46'0 0.0
2018-May-19 11:00N 59°27' E 024°46'0 0.0
2018-May-19 10:29N 59°27' E 024°46'0 0.0
2018-May-19 09:59N 59°27' E 024°46'0 0.0
2018-May-19 09:29N 59°27' E 024°46'0 0.0
2018-May-19 08:59N 59°27' E 024°46'0 0.0
2018-May-19 08:30N 59°27' E 024°46'0 0.0
2018-May-19 07:58N 59°27' E 024°46'0 0.0
2018-May-19 07:28N 59°27' E 024°46'0 0.0
2018-May-19 06:58N 59°27' E 024°46'0 0.0
2018-May-19 06:28N 59°27' E 024°46'0 0.0
2018-May-19 06:00N 59°27' E 024°46'2 3.4
2018-May-19 05:30N 59°29' E 024°46'611.2
2018-May-19 05:01N 59°30' E 024°35'713.3
2018-May-19 04:30N 59°30' E 024°22'815.1
2018-May-19 03:58N 59°29' E 024°06'1116.1
2018-May-19 03:16N 59°28' E 023°44'415.9
2018-May-19 03:00N 59°28' E 023°36'816.0
2018-May-19 02:28N 59°27' E 023°19'816.2
2018-May-19 01:57N 59°27' E 023°02'2915.8
2018-May-19 00:05N 59°14' E 022°10'116.1
2018-May-19 00:01N 59°13' E 022°08'815.9
2018-May-18 23:31N 59°08' E 021°56'815.6
2018-May-18 23:01N 59°03' E 021°45'815.4
2018-May-18 22:30N 58°56' E 021°38'815.4
2018-May-18 22:01N 58°49' E 021°32'192 4.3
2018-May-17 01:23N 55°40' E 020°33'8 9.6
2018-May-17 00:33N 55°36' E 020°20'1 9.6
2018-May-17 00:28N 55°36' E 020°19'4 9.4
2018-May-17 00:00N 55°34' E 020°12'16 9.4
2018-May-16 22:15N 55°23' E 019°51'2 9.2
2018-May-16 21:59N 55°21' E 019°48'15 9.3
2018-May-16 20:24N 55°07' E 019°40'4 9.1
2018-May-16 20:00N 55°04' E 019°38'4 9.1
2018-May-16 19:30N 54°59' E 019°37'5 9.4
2018-May-16 19:00N 54°55' E 019°36'5 9.4
2018-May-16 18:30N 54°50' E 019°35'5 9.5
2018-May-16 18:00N 54°45' E 019°37'4 8.9
2018-May-16 17:30N 54°42' E 019°43'5 9.4
2018-May-16 17:00N 54°40' E 019°50'4 7.0
2018-May-16 16:30N 54°38' E 019°55'0 0.0
2018-May-16 15:20N 54°38' E 019°55'0 0.0
2018-May-16 14:55N 54°38' E 019°55'0 0.0
2018-May-16 14:28N 54°38' E 019°55'0 0.0
2018-May-16 13:58N 54°38' E 019°55'0 0.0
2018-May-16 13:13N 54°38' E 019°55'0 0.0
2018-May-16 12:24N 54°38' E 019°55'0 0.0
2018-May-16 12:00N 54°38' E 019°55'0 0.0
2018-May-16 11:24N 54°38' E 019°55'0 0.0
2018-May-16 10:51N 54°38' E 019°55'0 0.0
2018-May-16 10:29N 54°38' E 019°55'0 0.0
2018-May-16 09:59N 54°38' E 019°55'0 0.0
2018-May-16 09:29N 54°38' E 019°55'0 0.0
2018-May-16 08:59N 54°38' E 019°55'0 0.0
2018-May-16 08:29N 54°38' E 019°55'0 0.0
2018-May-16 07:58N 54°38' E 019°55'0 0.0
2018-May-16 07:28N 54°38' E 019°55'0 0.0
2018-May-16 06:58N 54°38' E 019°55'0 0.0
2018-May-16 06:28N 54°38' E 019°55'0 0.2
2018-May-16 06:00N 54°38' E 019°55'3 5.1
2018-May-16 05:30N 54°39' E 019°51'5 9.2
2018-May-16 05:00N 54°42' E 019°44'4 8.9
2018-May-16 04:30N 54°44' E 019°38'4 8.5
2018-May-16 04:00N 54°45' E 019°31'4 8.8
2018-May-16 03:30N 54°45' E 019°23'5 9.0
2018-May-16 03:00N 54°46' E 019°15'4 7.6
2018-May-16 02:30N 54°49' E 019°12'4 8.4
2018-May-16 02:00N 54°53' E 019°09'3 5.3
2018-May-16 01:31N 54°53' E 019°13'3 5.8
2018-May-16 00:58N 54°50' E 019°13'4 8.9
2018-May-16 00:30N 54°47' E 019°08'4 8.9
2018-May-16 00:00N 54°45' E 019°01'4 8.4
2018-May-15 23:30N 54°41' E 018°58'4 8.8
2018-May-15 23:00N 54°37' E 018°55'4 8.7
2018-May-15 22:30N 54°33' E 018°51'4 8.8
2018-May-15 22:00N 54°30' E 018°46'510.1
2018-May-15 21:30N 54°26' E 018°40'2 4.0
2018-May-15 20:59N 54°24' E 018°40'0 0.0
2018-May-15 20:25N 54°24' E 018°40'0 0.0
2018-May-15 19:58N 54°24' E 018°40'0 0.0
2018-May-15 19:25N 54°24' E 018°40'0 0.0
2018-May-15 18:58N 54°24' E 018°40'0 0.0
2018-May-15 18:28N 54°24' E 018°40'0 0.0
2018-May-15 18:00N 54°24' E 018°40'0 0.0
2018-May-15 17:27N 54°24' E 018°40'0 0.0
2018-May-15 17:00N 54°24' E 018°40'0 0.0
2018-May-15 16:27N 54°24' E 018°40'0 0.0
2018-May-15 16:00N 54°24' E 018°40'0 0.0
2018-May-15 15:26N 54°24' E 018°40'0 0.0
2018-May-15 14:56N 54°24' E 018°40'0 0.0
2018-May-15 14:29N 54°24' E 018°40'0 0.0
2018-May-15 13:59N 54°24' E 018°40'0 0.0
2018-May-15 13:28N 54°24' E 018°40'0 0.0
2018-May-15 12:58N 54°24' E 018°40'0 0.0
2018-May-15 12:28N 54°24' E 018°40'0 0.0
2018-May-15 11:55N 54°24' E 018°40'0 0.0
2018-May-15 11:28N 54°24' E 018°40'0 0.0
2018-May-15 11:00N 54°24' E 018°40'0 0.0
2018-May-15 10:30N 54°24' E 018°40'0 0.0
2018-May-15 09:57N 54°24' E 018°40'0 0.0
2018-May-15 09:30N 54°24' E 018°40'0 0.0
2018-May-15 08:53N 54°24' E 018°40'0 0.0
2018-May-15 08:29N 54°24' E 018°40'0 0.0
2018-May-15 07:59N 54°24' E 018°40'0 0.0
2018-May-15 07:29N 54°24' E 018°40'0 0.0
2018-May-15 06:59N 54°24' E 018°40'0 0.0
2018-May-15 06:28N 54°24' E 018°40'0 0.0
2018-May-15 05:58N 54°24' E 018°40'0 0.0
2018-May-15 05:28N 54°24' E 018°40'0 0.0
2018-May-15 05:00N 54°24' E 018°40'2 3.3
2018-May-15 04:30N 54°26' E 018°39'4 8.4
2018-May-15 04:00N 54°29' E 018°43'612.2
2018-May-15 03:30N 54°34' E 018°50'714.2
2018-May-15 03:00N 54°40' E 018°57'814.8
2018-May-15 02:28N 54°47' E 018°59'612.3
2018-May-15 02:00N 54°49' E 018°50'815.4
2018-May-15 01:30N 54°54' E 018°39'714.5
2018-May-15 01:00N 54°56' E 018°27'815.1
2018-May-15 00:28N 54°55' E 018°14'1215.2
2018-May-14 23:42N 54°54' E 017°53'3515.4
2018-May-14 21:28N 54°49' E 016°54'715.5
2018-May-14 20:59N 54°47' E 016°42'715.5
2018-May-14 20:30N 54°46' E 016°29'815.4
2018-May-14 20:00N 54°45' E 016°16'1515.0
2018-May-14 18:59N 54°43' E 015°49'1215.7
2018-May-14 18:13N 54°41' E 015°29'415.7
2018-May-14 17:56N 54°40' E 015°21'715.7
2018-May-14 17:30N 54°39' E 015°10'815.6
2018-May-14 17:00N 54°38' E 014°56'815.6
2018-May-14 16:31N 54°37' E 014°43'815.4
2018-May-14 16:00N 54°36' E 014°29'815.0
2018-May-14 15:28N 54°37' E 014°16'915.2
2018-May-14 14:52N 54°40' E 014°01'  

Dump ship's entire track history